Costa Luminosa — ICGU — position and weather

sailwx.info

Track history (hours):
 
Tides and Currents Weather Stations Pressure Air Temp Water Temp Dewpoint Dewpoint Depression Visibility Wind Speed Wind Dir Waves Ship Positions

Costa Luminosa

Last reported at 2020-Aug-05 19:57 UTC. Time now 2020-Aug-05 21:40 UTC.
Position N 44°06' E 009°50'.

Length 294 m; draft 8.1 m.

Type: Passenger vessel. MMSI: 247257900.

Date/timePositionNaut miles runAvg speedWind from/ knotsBaromVisibWave heightAir tempDewpointWater temp
2020-Aug-05 19:57N 44°06' E 009°50'0 0.0
2020-Aug-05 19:30N 44°06' E 009°50'0 0.0
2020-Aug-05 17:30N 44°06' E 009°50'0 0.0
2020-Aug-05 14:00N 44°06' E 009°50'0 0.0
2020-Aug-05 13:00N 44°06' E 009°50'0 0.0
2020-Aug-05 12:30N 44°06' E 009°50'0 0.0
2020-Aug-05 09:30N 44°06' E 009°50'0 0.0
2020-Aug-05 06:30N 44°06' E 009°50'0 0.0
2020-Aug-05 04:30N 44°06' E 009°50'0 0.0
2020-Aug-05 00:30N 44°06' E 009°50'0 0.0
2020-Aug-04 22:30N 44°06' E 009°50'0 0.0
2020-Aug-04 21:00N 44°06' E 009°50'0 0.0
2020-Aug-04 20:00N 44°06' E 009°50'0 0.0
2020-Aug-04 17:00N 44°06' E 009°50'0 0.0
2020-Aug-04 11:00N 44°06' E 009°50'0 0.0
2020-Aug-04 09:30N 44°06' E 009°50'0 0.0
2020-Aug-04 09:00N 44°06' E 009°50'0 0.0
2020-Aug-04 08:30N 44°06' E 009°50'0 0.0
2020-Aug-04 05:00N 44°06' E 009°50'0 0.0
2020-Aug-04 03:57N 44°06' E 009°50'0 0.0
2020-Aug-04 03:00N 44°06' E 009°50'0 0.0
2020-Aug-03 22:30N 44°06' E 009°50'0 0.0
2020-Aug-03 17:30N 44°06' E 009°50'0 0.0
2020-Aug-03 16:30N 44°06' E 009°50'0 0.0
2020-Aug-03 15:30N 44°06' E 009°50'0 0.0
2020-Aug-03 12:57N 44°06' E 009°50'0 0.0
2020-Aug-03 11:00N 44°06' E 009°50'0 0.0
2020-Aug-03 10:00N 44°06' E 009°50'0 0.0
2020-Aug-03 09:30N 44°06' E 009°50'0 0.0
2020-Aug-03 09:00N 44°06' E 009°50'0 0.0
2020-Aug-03 07:00N 44°06' E 009°50'0 0.0
2020-Aug-03 05:30N 44°06' E 009°50'0 0.0
2020-Aug-03 04:30N 44°06' E 009°50'0 0.0
2020-Aug-03 03:30N 44°06' E 009°50'0 0.0
2020-Aug-03 00:00N 44°06' E 009°50'9 1.4
2020-Aug-02 17:31N 43°59' E 009°57'1615.8
2020-Aug-02 16:31N 43°46' E 009°45'7 2.5
2020-Aug-02 13:31N 43°52' E 009°40'5 9.8
2020-Aug-02 13:01N 43°50' E 009°34'510.2
2020-Aug-02 12:30N 43°47' E 009°29'2010.2
2020-Aug-02 10:31N 43°32' E 009°09'510.3
2020-Aug-02 10:01N 43°28' E 009°04'3710.6
2020-Aug-02 06:31N 43°03' E 008°28'11 7.6
2020-Aug-02 05:01N 42°55' E 008°38'5 9.9
2020-Aug-02 04:31N 42°58' E 008°43'5 9.9
2020-Aug-02 04:01N 43°02' E 008°48'10 9.8
2020-Aug-02 03:01N 43°09' E 008°57'10 9.7
2020-Aug-02 02:00N 43°16' E 009°06'1010.0
2020-Aug-02 01:01N 43°23' E 009°16'2510.0
2020-Aug-01 22:30N 43°42' E 009°39'25 3.8
2020-Aug-01 15:59N 44°05' E 009°51'0 0.0
2020-Aug-01 13:59N 44°05' E 009°51'0 0.0
2020-Aug-01 11:29N 44°05' E 009°51'1 0.7
2020-Aug-01 09:30N 44°06' E 009°50'1118.1
2020-Aug-01 09:29N 44°05' E 009°51'0 0.0
2020-Aug-01 05:26N 44°05' E 009°51'0 0.0
2020-Aug-01 02:56N 44°05' E 009°51'0 0.0
2020-Aug-01 02:29N 44°05' E 009°51'0 0.0
2020-Aug-01 00:29N 44°05' E 009°51'0 0.0
2020-Jul-31 23:59N 44°05' E 009°51'0 0.0
2020-Jul-31 21:29N 44°05' E 009°51'0 0.0
2020-Jul-31 17:56N 44°05' E 009°51'0 0.0
2020-Jul-31 15:29N 44°05' E 009°51'1 0.4
2020-Jul-31 12:00N 44°06' E 009°50'1101.7
2020-Jul-31 11:59N 44°05' E 009°51'0 0.0
2020-Jul-31 09:59N 44°05' E 009°51'0 0.0
2020-Jul-31 06:29N 44°05' E 009°51'0 0.0
2020-Jul-31 05:59N 44°05' E 009°51'0 0.0
2020-Jul-31 04:59N 44°05' E 009°51'0 0.0
2020-Jul-31 03:59N 44°05' E 009°51'0 0.0
2020-Jul-31 00:56N 44°05' E 009°51'0 0.0
2020-Jul-31 00:29N 44°05' E 009°51'0 0.0
2020-Jul-30 22:29N 44°05' E 009°51'0 0.0
2020-Jul-30 21:23N 44°05' E 009°51'0 0.0
2020-Jul-30 20:26N 44°05' E 009°51'0 0.0
2020-Jul-30 19:29N 44°05' E 009°51'0 0.0
2020-Jul-30 13:29N 44°05' E 009°51'2 0.5
2020-Jul-30 10:30N 44°06' E 009°50'223.4
2020-Jul-30 10:26N 44°05' E 009°51'0 0.0
2020-Jul-30 08:59N 44°05' E 009°51'0 0.0
2020-Jul-30 08:29N 44°05' E 009°51'050.0
2020-Jul-30 08:29N 44°05' E 009°51'0 0.0
2020-Jul-30 05:59N 44°05' E 009°51'0 0.0
2020-Jul-30 03:59N 44°05' E 009°51'0 0.0
2020-Jul-29 20:59N 44°05' E 009°51'0 0.0
2020-Jul-29 20:29N 44°05' E 009°51'0 0.0
2020-Jul-29 19:29N 44°05' E 009°51'0 0.0
2020-Jul-29 16:59N 44°05' E 009°51'0 0.2
2020-Jul-29 16:32N 44°05' E 009°51'0 0.1
2020-Jul-29 16:29N 44°05' E 009°51'073.9
2020-Jul-29 16:29N 44°05' E 009°51'0 0.1
2020-Jul-29 15:30N 44°05' E 009°51'0 6.1
2020-Jul-29 15:29N 44°05' E 009°51'1 0.7
2020-Jul-29 14:30N 44°06' E 009°51'1220.2
2020-Jul-29 14:29N 44°05' E 009°51'1 0.3
2020-Jul-29 09:30N 44°04' E 009°52'187.5
2020-Jul-29 09:29N 44°05' E 009°51'0 0.0
2020-Jul-29 04:59N 44°05' E 009°51'0 0.0
2020-Jul-29 02:59N 44°05' E 009°51'0 0.0
2020-Jul-29 00:59N 44°05' E 009°51'0 0.0
2020-Jul-28 23:29N 44°05' E 009°51'0 0.0
2020-Jul-28 19:29N 44°05' E 009°51'2 0.6
2020-Jul-28 16:59N 44°06' E 009°50'2923.9
2020-Jul-28 16:59N 44°05' E 009°51'0 0.0
2020-Jul-28 14:59N 44°05' E 009°51'0 5.6
2020-Jul-28 14:58N 44°05' E 009°51'0 0.1
2020-Jul-28 12:59N 44°05' E 009°51'0 0.2
2020-Jul-28 12:36N 44°05' E 009°51'0 0.1
2020-Jul-28 11:29N 44°05' E 009°51'0 0.0
2020-Jul-28 10:59N 44°05' E 009°51'0 0.0
2020-Jul-28 10:29N 44°05' E 009°51'0 0.7
2020-Jul-28 10:02N 44°05' E 009°51'0 0.6
2020-Jul-28 09:29N 44°05' E 009°51'2 0.5
2020-Jul-28 06:30N 44°06' E 009°50'2166.8
2020-Jul-28 06:29N 44°05' E 009°51'0 0.0
2020-Jul-28 05:29N 44°05' E 009°51'0 0.0
2020-Jul-28 01:29N 44°05' E 009°51'0 0.0
2020-Jul-27 22:59N 44°05' E 009°51'0 0.0
2020-Jul-27 18:55N 44°05' E 009°51'0 0.0
2020-Jul-27 17:28N 44°05' E 009°51'0 0.0
2020-Jul-27 16:58N 44°05' E 009°51'0 0.0
2020-Jul-27 16:31N 44°05' E 009°51'0 0.0
2020-Jul-27 16:01N 44°05' E 009°51'0 0.8
2020-Jul-27 15:38N 44°05' E 009°51'0 2.2
2020-Jul-27 15:31N 44°05' E 009°51'2498.6
2020-Jul-27 15:30N 44°06' E 009°50'2 3.1
2020-Jul-27 15:01N 44°05' E 009°51'11648.9
2020-Jul-27 15:00N 44°06' E 009°50'1 2.8
2020-Jul-27 14:31N 44°05' E 009°51'178.5
2020-Jul-27 14:30N 44°06' E 009°51'1 0.2
2020-Jul-27 12:00N 44°05' E 009°51'0 0.0
2020-Jul-27 10:00N 44°05' E 009°51'1303.0
2020-Jul-27 10:00N 44°06' E 009°51'1 1.5
2020-Jul-27 09:31N 44°05' E 009°51'028.3
2020-Jul-27 09:30N 44°05' E 009°51'0 0.0
2020-Jul-27 08:00N 44°05' E 009°51'0 0.2
2020-Jul-27 07:40N 44°05' E 009°51'0 0.1
2020-Jul-27 06:31N 44°05' E 009°51'0 0.0
2020-Jul-27 05:30N 44°05' E 009°51'0 0.0
2020-Jul-27 04:31N 44°05' E 009°51'0 0.0
2020-Jul-27 03:28N 44°05' E 009°51'0 0.0
2020-Jul-27 03:01N 44°05' E 009°51'0 0.0
2020-Jul-27 02:31N 44°05' E 009°51'0 0.0
2020-Jul-27 02:01N 44°05' E 009°51'0 0.0
2020-Jul-27 01:01N 44°05' E 009°51'0 0.0
2020-Jul-26 20:28N 44°05' E 009°51'  
Track history (hours):
 
Tides and Currents Weather Stations Pressure Air Temp Water Temp Dewpoint Dewpoint Depression Visibility Wind Speed Wind Dir Waves Ship Positions

Costa Luminosa

Last reported at 2020-Aug-05 19:57 UTC. Time now 2020-Aug-05 21:40 UTC.
Position N 44°06' E 009°50'.

Length 294 m; draft 8.1 m.

Type: Passenger vessel. MMSI: 247257900.

Date/timePositionNaut miles runAvg speedWind from/ knotsBaromVisibWave heightAir tempDewpointWater temp
2020-Aug-05 19:57N 44°06' E 009°50'0 0.0
2020-Aug-05 19:30N 44°06' E 009°50'0 0.0
2020-Aug-05 17:30N 44°06' E 009°50'0 0.0
2020-Aug-05 14:00N 44°06' E 009°50'0 0.0
2020-Aug-05 13:00N 44°06' E 009°50'0 0.0
2020-Aug-05 12:30N 44°06' E 009°50'0 0.0
2020-Aug-05 09:30N 44°06' E 009°50'0 0.0
2020-Aug-05 06:30N 44°06' E 009°50'0 0.0
2020-Aug-05 04:30N 44°06' E 009°50'0 0.0
2020-Aug-05 00:30N 44°06' E 009°50'0 0.0
2020-Aug-04 22:30N 44°06' E 009°50'0 0.0
2020-Aug-04 21:00N 44°06' E 009°50'0 0.0
2020-Aug-04 20:00N 44°06' E 009°50'0 0.0
2020-Aug-04 17:00N 44°06' E 009°50'0 0.0
2020-Aug-04 11:00N 44°06' E 009°50'0 0.0
2020-Aug-04 09:30N 44°06' E 009°50'0 0.0
2020-Aug-04 09:00N 44°06' E 009°50'0 0.0
2020-Aug-04 08:30N 44°06' E 009°50'0 0.0
2020-Aug-04 05:00N 44°06' E 009°50'0 0.0
2020-Aug-04 03:57N 44°06' E 009°50'0 0.0
2020-Aug-04 03:00N 44°06' E 009°50'0 0.0
2020-Aug-03 22:30N 44°06' E 009°50'0 0.0
2020-Aug-03 17:30N 44°06' E 009°50'0 0.0
2020-Aug-03 16:30N 44°06' E 009°50'0 0.0
2020-Aug-03 15:30N 44°06' E 009°50'0 0.0
2020-Aug-03 12:57N 44°06' E 009°50'0 0.0
2020-Aug-03 11:00N 44°06' E 009°50'0 0.0
2020-Aug-03 10:00N 44°06' E 009°50'0 0.0
2020-Aug-03 09:30N 44°06' E 009°50'0 0.0
2020-Aug-03 09:00N 44°06' E 009°50'0 0.0
2020-Aug-03 07:00N 44°06' E 009°50'0 0.0
2020-Aug-03 05:30N 44°06' E 009°50'0 0.0
2020-Aug-03 04:30N 44°06' E 009°50'0 0.0
2020-Aug-03 03:30N 44°06' E 009°50'0 0.0
2020-Aug-03 00:00N 44°06' E 009°50'9 1.4
2020-Aug-02 17:31N 43°59' E 009°57'1615.8
2020-Aug-02 16:31N 43°46' E 009°45'7 2.5
2020-Aug-02 13:31N 43°52' E 009°40'5 9.8
2020-Aug-02 13:01N 43°50' E 009°34'510.2
2020-Aug-02 12:30N 43°47' E 009°29'2010.2
2020-Aug-02 10:31N 43°32' E 009°09'510.3
2020-Aug-02 10:01N 43°28' E 009°04'3710.6
2020-Aug-02 06:31N 43°03' E 008°28'11 7.6
2020-Aug-02 05:01N 42°55' E 008°38'5 9.9
2020-Aug-02 04:31N 42°58' E 008°43'5 9.9
2020-Aug-02 04:01N 43°02' E 008°48'10 9.8
2020-Aug-02 03:01N 43°09' E 008°57'10 9.7
2020-Aug-02 02:00N 43°16' E 009°06'1010.0
2020-Aug-02 01:01N 43°23' E 009°16'2510.0
2020-Aug-01 22:30N 43°42' E 009°39'25 3.8
2020-Aug-01 15:59N 44°05' E 009°51'0 0.0
2020-Aug-01 13:59N 44°05' E 009°51'0 0.0
2020-Aug-01 11:29N 44°05' E 009°51'1 0.7
2020-Aug-01 09:30N 44°06' E 009°50'1118.1
2020-Aug-01 09:29N 44°05' E 009°51'0 0.0
2020-Aug-01 05:26N 44°05' E 009°51'0 0.0
2020-Aug-01 02:56N 44°05' E 009°51'0 0.0
2020-Aug-01 02:29N 44°05' E 009°51'0 0.0
2020-Aug-01 00:29N 44°05' E 009°51'0 0.0
2020-Jul-31 23:59N 44°05' E 009°51'0 0.0
2020-Jul-31 21:29N 44°05' E 009°51'0 0.0
2020-Jul-31 17:56N 44°05' E 009°51'0 0.0
2020-Jul-31 15:29N 44°05' E 009°51'1 0.4
2020-Jul-31 12:00N 44°06' E 009°50'1101.7
2020-Jul-31 11:59N 44°05' E 009°51'0 0.0
2020-Jul-31 09:59N 44°05' E 009°51'0 0.0
2020-Jul-31 06:29N 44°05' E 009°51'0 0.0
2020-Jul-31 05:59N 44°05' E 009°51'0 0.0
2020-Jul-31 04:59N 44°05' E 009°51'0 0.0
2020-Jul-31 03:59N 44°05' E 009°51'0 0.0
2020-Jul-31 00:56N 44°05' E 009°51'0 0.0
2020-Jul-31 00:29N 44°05' E 009°51'0 0.0
2020-Jul-30 22:29N 44°05' E 009°51'0 0.0
2020-Jul-30 21:23N 44°05' E 009°51'0 0.0
2020-Jul-30 20:26N 44°05' E 009°51'0 0.0
2020-Jul-30 19:29N 44°05' E 009°51'0 0.0
2020-Jul-30 13:29N 44°05' E 009°51'2 0.5
2020-Jul-30 10:30N 44°06' E 009°50'223.4
2020-Jul-30 10:26N 44°05' E 009°51'0 0.0
2020-Jul-30 08:59N 44°05' E 009°51'0 0.0
2020-Jul-30 08:29N 44°05' E 009°51'050.0
2020-Jul-30 08:29N 44°05' E 009°51'0 0.0
2020-Jul-30 05:59N 44°05' E 009°51'0 0.0
2020-Jul-30 03:59N 44°05' E 009°51'0 0.0
2020-Jul-29 20:59N 44°05' E 009°51'0 0.0
2020-Jul-29 20:29N 44°05' E 009°51'0 0.0
2020-Jul-29 19:29N 44°05' E 009°51'0 0.0
2020-Jul-29 16:59N 44°05' E 009°51'0 0.2
2020-Jul-29 16:32N 44°05' E 009°51'0 0.1
2020-Jul-29 16:29N 44°05' E 009°51'073.9
2020-Jul-29 16:29N 44°05' E 009°51'0 0.1
2020-Jul-29 15:30N 44°05' E 009°51'0 6.1
2020-Jul-29 15:29N 44°05' E 009°51'1 0.7
2020-Jul-29 14:30N 44°06' E 009°51'1220.2
2020-Jul-29 14:29N 44°05' E 009°51'1 0.3
2020-Jul-29 09:30N 44°04' E 009°52'187.5
2020-Jul-29 09:29N 44°05' E 009°51'0 0.0
2020-Jul-29 04:59N 44°05' E 009°51'0 0.0
2020-Jul-29 02:59N 44°05' E 009°51'0 0.0
2020-Jul-29 00:59N 44°05' E 009°51'0 0.0
2020-Jul-28 23:29N 44°05' E 009°51'0 0.0
2020-Jul-28 19:29N 44°05' E 009°51'2 0.6
2020-Jul-28 16:59N 44°06' E 009°50'2923.9
2020-Jul-28 16:59N 44°05' E 009°51'0 0.0
2020-Jul-28 14:59N 44°05' E 009°51'0 5.6
2020-Jul-28 14:58N 44°05' E 009°51'0 0.1
2020-Jul-28 12:59N 44°05' E 009°51'0 0.2
2020-Jul-28 12:36N 44°05' E 009°51'0 0.1
2020-Jul-28 11:29N 44°05' E 009°51'0 0.0
2020-Jul-28 10:59N 44°05' E 009°51'0 0.0
2020-Jul-28 10:29N 44°05' E 009°51'0 0.7
2020-Jul-28 10:02N 44°05' E 009°51'0 0.6
2020-Jul-28 09:29N 44°05' E 009°51'2 0.5
2020-Jul-28 06:30N 44°06' E 009°50'2166.8
2020-Jul-28 06:29N 44°05' E 009°51'0 0.0
2020-Jul-28 05:29N 44°05' E 009°51'0 0.0
2020-Jul-28 01:29N 44°05' E 009°51'0 0.0
2020-Jul-27 22:59N 44°05' E 009°51'0 0.0
2020-Jul-27 18:55N 44°05' E 009°51'0 0.0
2020-Jul-27 17:28N 44°05' E 009°51'0 0.0
2020-Jul-27 16:58N 44°05' E 009°51'0 0.0
2020-Jul-27 16:31N 44°05' E 009°51'0 0.0
2020-Jul-27 16:01N 44°05' E 009°51'0 0.8
2020-Jul-27 15:38N 44°05' E 009°51'0 2.2
2020-Jul-27 15:31N 44°05' E 009°51'2498.6
2020-Jul-27 15:30N 44°06' E 009°50'2 3.1
2020-Jul-27 15:01N 44°05' E 009°51'11648.9
2020-Jul-27 15:00N 44°06' E 009°50'1 2.8
2020-Jul-27 14:31N 44°05' E 009°51'178.5
2020-Jul-27 14:30N 44°06' E 009°51'1 0.2
2020-Jul-27 12:00N 44°05' E 009°51'0 0.0
2020-Jul-27 10:00N 44°05' E 009°51'1303.0
2020-Jul-27 10:00N 44°06' E 009°51'1 1.5
2020-Jul-27 09:31N 44°05' E 009°51'028.3
2020-Jul-27 09:30N 44°05' E 009°51'0 0.0
2020-Jul-27 08:00N 44°05' E 009°51'0 0.2
2020-Jul-27 07:40N 44°05' E 009°51'0 0.1
2020-Jul-27 06:31N 44°05' E 009°51'0 0.0
2020-Jul-27 05:30N 44°05' E 009°51'0 0.0
2020-Jul-27 04:31N 44°05' E 009°51'0 0.0
2020-Jul-27 03:28N 44°05' E 009°51'0 0.0
2020-Jul-27 03:01N 44°05' E 009°51'0 0.0
2020-Jul-27 02:31N 44°05' E 009°51'0 0.0
2020-Jul-27 02:01N 44°05' E 009°51'0 0.0
2020-Jul-27 01:01N 44°05' E 009°51'0 0.0
2020-Jul-26 20:28N 44°05' E 009°51'  

Dump ship's entire track history